Logs | Bertrand, Villiers-sur-Morin, FRA - JN18ku
Paging Controls
Log ID Date UTC KHz ID Location S/P ITU Region GSQ LSB USB Sec. Fmt. Power KM Miles Deg
2395233 2023-04-24 0051 423 BJA Bejaia / Soummam ALG af JM26mq 40 1364 848 171
2395234 2023-04-23 2334 421 BUR Burnham ENG eu IO91pm 391 243 320
2395238 2023-04-23 2153 436 SME Sarmellek / Balaton HNG eu JN86op 1098 682 97
2395239 2023-04-23 2034 438 PE Poprad / Tatry East SVK eu KN09fb 1281 796 82
2395237 2023-04-23 2033 429 LOS Losinj HRV eu JN74fm 40 1005 624 114
2395235 2023-04-23 2031 423 ZO Nis / Zitoradja SRB eu KN03ue 1579 981 106
2395236 2023-04-23 1955 428 MUS Nice / Cote d'Azur FRA eu JN33hj 40 672 418 153
2395242 2023-04-22 0326 422 OSJ Osijek HRV eu JN95lk 100 1271 790 101
2395244 2023-04-22 0259 426 MIQ Mike for Ingolstadt DEU eu JN58tn 642 399 89
2395240 2023-04-22 0257 420 INN Innsbruck AUT eu JN57qf 40 657 408 102
2395241 2023-04-22 0226 421 SAL Zadar / Sali HRV eu JN73ow 40 1090 678 115
2395243 2023-04-22 0224 424 PIS Zagreb / Pleso / Pisarovina HRV eu JN75wo 1044 649 105
2395246 2023-04-22 0218 433 CRE Cres HRV eu JN74fv 40 983 611 112
2395245 2023-04-22 0208 426 GBG Gleichenberg for Graz AUT eu JN76vv 100 986 613 97
2395252 2023-04-21 1938 433.5 HEN Henton ENG eu IO91os 25 416 258 322
2395251 2023-04-21 1935 431 KBA Karlsruhe / Baden Baden DEU eu JN48bt 384 239 88
2395250 2023-04-21 1934 430 SN St Yan FRA eu JN26bh 298 185 161
2395248 2023-04-21 1931 427 RY Royan / Medis FRA eu IN95no 459 285 219
2395249 2023-04-21 1146 428 CTX Chateauroux / Deols FRA eu JN06vw 50 228 142 201
2395247 2023-04-21 1121 424 PHG Phalsbourg / Bourscheid FRA eu JN38os 317 197 90
2394482 2023-03-31 2106 338 GU Brest / Guipavas FRA eu IN78ul 25 528 328 268
2394483 2023-03-31 2015 398 MT St Nazaire / Montoir FRA eu IN87xi 50 401 249 247
2394484 2023-03-31 2007 412 GRN Gerona ESP eu JN12ja 250 760 472 180
2394485 2023-03-31 2006 417 LI Dusseldorf DEU eu JO31ki 25 398 247 44
2394486 2023-03-30 2124 371 MYN Munster / Osnabruck DEU eu JO32vd 25 505 314 41
2394487 2023-03-30 2058 329 JW Jersey JSY eu IN89ve 372 231 277
2394488 2023-03-28 2008 335 WCO Westcott ENG eu IO91mu 430 267 322
2394490 2023-03-28 1936 433.5 HEN Henton ENG eu IO91os 25 416 258 322
2394489 2023-03-28 1846 397 LM Borlange / Rommehed / Falun SWE eu JP70tj 1517 943 27
2388777 2023-03-26 2003 262 NR Inowroclaw POL eu JO92eu 1172 728 61
2388778 2023-03-26 1923 265 KAV Pula / Kavran HRV eu JN74av 50 955 593 113
2388779 2023-03-24 2351 463 CL Cerklje SVN eu JN75rv 1002 622 104
2388785 2023-03-24 2301 490 WAK Vakarel BUL eu KN12un 1755 1090 105
2388782 2023-03-24 2001 485 IA Indija SRB eu KN05ab 60 1366 849 101
2388783 2023-03-24 2000 488 NPR Tomaszow-Mazowiecki / Porter POL eu KO01bn 1261 783 69
2388786 2023-03-24 1959 495 PA Pancevo SRB eu KN04hv 50 1415 879 101
2388788 2023-03-24 1930 514.5 LA Namest Nad Oslavou CZE eu JN89cd 972 604 83
2388790 2023-03-24 1929 521 BSW Bucuresti / Baneasa ROU eu KN24xl 1819 1130 96
2388789 2023-03-24 1927 517 ARD Arad ROU eu KN06ne 1398 869 95
2388791 2023-03-24 1837 489 OI Donskoye KAL eu JO94xw 1348 838 53
2388784 2023-03-24 1836 488 ILM Illesheim DEU eu JN59el 549 341 79
2388781 2023-03-24 1834 468 FTZ Fritzlar DEU eu JO41pc 25 522 325 58
2388780 2023-03-24 1832 452 ANS Ansbach DEU eu JN59hh 566 352 81
2388787 2023-03-24 0011 508 Z Zilina / Hlinik SVK eu JN99hf 1147 712 81
2387407 2023-03-22 2208 490 WAK Vakarel BUL eu KN12un 1755 1090 105
2387405 2023-03-22 2206 463 CL Cerklje SVN eu JN75rv 1002 622 104
2387371 2023-03-22 2156 410 SI Salzburg AUT eu JN67lt 754 468 95
2387374 2023-03-22 2155 412 HUM Humac HRV eu JN83ig 1232 765 115
2387389 2023-03-22 2148 423 TS Toulouse / Blagnac FRA eu JN03rm 15 603 375 190
2387379 2023-03-22 2142 415 TOE Toulouse / Blagnac FRA eu JN03ul 15 604 375 188
2387333 2023-03-22 2108 375 OO Oostende BEL eu JO11ke 259 161 0
2387346 2023-03-21 2122 385 BO Zadar / Bokanjac HRV eu JN74pe 40 1081 671 114
2387329 2023-03-21 2116 369 MNE Munchen DEU eu JN58ui 25 651 405 91
2387288 2023-03-21 2103 289 RI Rijeka / Krk HRV eu JN75hd 980 609 110
2387286 2023-03-21 2102 277 CHT Chiltern ENG eu IO91ro 25 390 243 322
2387300 2023-03-21 0247 330 ABU Altenburg / Nobitz DEU eu JO60gx 25 731 454 67
2387285 2023-03-21 0237 265 KAV Pula / Kavran HRV eu JN74av 50 955 593 113
2387355 2023-03-21 0110 395 B Bilbao ESP eu IN83li 762 474 218
2387356 2023-03-21 0100 396 ROC Rochefort / St Agnant FRA eu IN95mv 438 272 222
2387317 2023-03-21 0050 355 MI Maribor SVN eu JN76ul 75 995 618 100
2387297 2023-03-21 0013 328 VJ Stauning DNK eu JO45fx 877 545 23
2387305 2023-03-21 0001 341 ALG Memmingen / Allgau DEU eu JN57dx 556 345 97
2387292 2023-03-20 2354 311 NSN Niederstetten DEU eu JN49xj 25 519 322 80
2387341 2023-03-20 2353 381 RG Rygge / Tune NOR eu JO59mh 1277 793 21
2387313 2023-03-20 2353 351 OSA Ouessant FRA eu IN78ll 583 362 268
2387295 2023-03-20 2309 322 RL La Rochelle / Ile De Re FRA eu IN96ke 422 262 226
2387294 2023-03-20 2303 318 AGB Augsburg DEU eu JN58lk 25 595 370 91
2387293 2023-03-20 2257 313 KI Klagenfurt AUT eu JN76ep 893 555 101
2387287 2023-03-20 2243 284 GNA Gorna BUL eu KN23td 1860 1156 101
2387302 2023-03-20 2232 334 MR Maribor SVN eu JN76vi 49 1006 625 101
2387401 2023-03-20 2114 438 KO Rijeka / Krk / Kozala HRV eu JN75fi 958 595 109
2387388 2023-03-20 2107 423 ZO Nis / Zitoradja SRB eu KN03ue 1579 981 106
2387385 2023-03-20 2105 421 SAL Zadar / Sali HRV eu JN73ow 40 1090 678 115
2387387 2023-03-20 2104 422 OSJ Osijek HRV eu JN95lk 100 1271 790 101
2387382 2023-03-20 2100 418 DVN Split / Drvenik HRV eu JN83bk 1183 735 115
2387384 2023-03-20 2100 420 GS Pula HRV eu JN64wv 944 586 113
2387380 2023-03-20 2057 416 POZ Beograd / Pozarevac SRB eu KN04no 40 1465 910 101
2387370 2023-03-20 2049 407 LUP Laupheim DEU eu JN48wf 30 520 323 95
2387367 2023-03-20 2042 404 CNE Caen / Carpiquet FRA eu IN99uc 25 233 145 278
2387363 2023-03-20 2037 402 OP Brussels National BEL eu JO20hw 263 164 27
2387361 2023-03-20 2029 400 BRZ Rijeka / Krk / Breza HRV eu JN75ek 2000 948 589 109
2387360 2023-03-20 2028 400 MSW Munchen DEU eu JN58wi 100 664 412 91
2387362 2023-03-20 2028 400.5 COD Codogno (LO) ITA eu JN45sf 646 401 126
2387357 2023-03-20 2024 397 LZD Lydd ENG eu JO00lx 12 273 170 330
2387352 2023-03-20 2017 393 BD Bordeaux / Merignac FRA eu IN94rw 507 315 212
2387348 2023-03-20 2015 388 BR Lyon / Bron FRA eu JN25lo 394 245 155
2387344 2023-03-20 2013 384 AT Annecy / Meythet FRA eu JN35au 410 255 143
2387337 2023-03-20 2011 378 LU Le Luc / Le Cannet FRA eu JN33gj 25 669 416 153
2387331 2023-03-20 2008 372 PY Le Puy / Loudes FRA eu JN15va 432 268 170
2387332 2023-03-20 2002 373 LCT Le Luc / Le Cannet FRA eu JN33ej 664 413 154
2387338 2023-03-20 1956 379 EB St Etienne / Boutheon FRA eu JN25dp 372 231 162
2387335 2023-03-20 1954 375 BRG Bourges FRA eu JN17da 208 130 192
2387311 2023-03-20 1944 346 CH Chambery / Aix-Les-Bains FRA eu JN25wo 426 265 146
2387299 2023-03-20 1940 330 MB Montbeliard / Courcelles FRA eu JN37lm 337 209 114
2387296 2023-03-20 1934 323 ONC Charleroi / Gosselies BEL eu JO20gl 25 217 135 32
2387290 2023-03-20 1901 291 WS Grenoble / St Geoirs FRA eu JN25ni 425 264 155
2387289 2023-03-20 1854 289 HR Hericourt FRA eu JN37in 25 318 198 115
2387378 2023-03-20 0052 414 BRI Bristol / Filton ENG eu IO81pj 488 303 307
2387359 2023-03-20 0049 399 KMN Burgas / Kamenar BUL eu KN32tp 2030 1261 100
2387328 2023-03-20 0044 365 L Karlovy Vary / Vrata CZE eu JO60le 742 461 74
2387321 2023-03-20 0042 358 MSE Munchen DEU eu JN58th 25 646 401 92
2387326 2023-03-18 2217 363 PI Poitiers / Biard FRA eu JN06eq 50 305 189 218
2387324 2023-03-18 2203 360 O Oradea ROU eu KN07wb 1425 885 90
2387320 2023-03-18 2157 358 RNN Roanne / Renaison FRA eu JN26ac 318 198 163
2387316 2023-03-18 2152 355 OBR Beograd / Obrenovac SRB eu KN04bp 50 1391 864 103
2387310 2023-03-18 2142 346 LHO Le Havre / Octeville FRA eu JN09co 211 131 294
2387309 2023-03-18 2139 345.5 CF Caslav / Chotusice / Centograf CZE eu JN79rv 917 570 78
2387307 2023-03-18 2135 343 AR Aurillac FRA eu JN14ew 437 272 185
2387308 2023-03-18 2133 343 KUS Kaunas / Karmelava LTU eu KO24bx 100 1600 994 56
2387342 2023-03-17 2246 382 LAR Arruda POR eu IM58lx 1451 902 225
2387325 2023-03-17 2204 361 NB Bordeaux / Merignac FRA eu IN95rd 25 487 303 213
2387314 2023-03-17 2154 353 SB St. Brieuc / Armor FRA eu IN88on 417 259 267
2387304 2023-03-17 2142 340 BLK Banja Luka BIH eu JN85pc 40 1168 726 105
2387301 2023-03-17 2127 332 EAL Almagro ESP eu IM88cw 25 1224 761 208
2387298 2023-03-17 2113 328 HIG San Sebastian ESP eu IN93cj 200 705 438 212
2387291 2023-03-17 2059 300 PV Novi Sad / Cenej / Petrovaradin SRB eu JN95rd 1320 820 101
2387303 2023-03-17 2036 338 MNW Munchen DEU eu JN58wi 25 664 412 91
2387327 2023-03-16 1952 365 LJ Koln / Bonn DEU eu JO30mw 25 378 235 50
2387322 2023-03-10 2218 358 BRS Biscarosse / Parentis FRA eu IN94ki 586 364 212
2387339 2023-03-09 0435 380 VNV Vilanova i la Geltru ESP eu JN01uf 853 530 186
2387330 2023-03-08 2221 369 CM Avignon / Caumont FRA eu JN23kv 25 572 356 163
2387349 2023-03-08 2136 389 ZRZ Zaragoza ESP eu IN91jr 300 854 531 203
2387375 2023-03-08 2119 412 GRA Granada ESP eu IM87de 25 1402 871 204
2387376 2023-03-08 2117 413 ALM Aix Les Milles FRA eu JN23qm 25 623 387 161
2387391 2023-03-08 2104 427 RY Royan / Medis FRA eu IN95no 459 285 219
2387399 2023-03-08 2102 435 SR UNID XUF xx
2387397 2023-03-08 2101 433 CRE Cres HRV eu JN74fv 40 983 611 112
2387366 2023-03-08 2055 404 LRD Lerida ESP eu JN01hn 250 830 515 193
2387368 2023-03-08 2054 404 AGO Angouleme / Brie Champniers FRA eu JN05fr 392 244 208
2387365 2023-03-08 2051 403 LPS Les Eplatures SUI eu JN37jb 353 219 122
2387364 2023-03-08 2048 403 VZ Vichy / Charmeil FRA eu JN16qd 303 189 172
2387386 2023-03-08 2044 421 GE Madrid / Grinon ESP eu IN80be 1101 684 211
2387394 2023-03-08 2043 430 SN St Yan FRA eu JN26bh 298 185 161
2387392 2023-03-08 2042 428 CTX Chateauroux / Deols FRA eu JN06vw 50 228 142 201
2387396 2023-03-08 2038 433 VON Vigo ESP eu IN52qe 200 1161 721 234
2387312 2023-03-08 2009 349.5 SZA Solenzara COR eu JN41qw 25 921 572 144
2387323 2023-03-08 2003 359 LOR Lorient / Lann Bihoue FRA eu IN87gs 100 483 300 257
2387318 2023-03-08 2002 356 SGO Sagunto ESP eu IM99vq 300 1048 651 194
2387350 2023-03-08 1959 389 PX Perigueux / Bassillac FRA eu JN05ke 25 435 270 201
2387336 2023-03-08 1958 376.5 ORI Orio al Serio (BG) ITA eu JN45wp 25 637 396 121
2387343 2023-03-08 1957 383 MAR Marseille / Provence FRA eu JN23nl 25 622 387 163
2387354 2023-03-08 1957 395 OB Marseille / Provence FRA eu JN23tf 25 660 410 160
2387353 2023-03-08 1956 394 NV Nevers / Fourchambault FRA eu JN16ow 215 133 173
2387347 2023-03-08 1954 387 RZ Rodez / Marcillac FRA eu JN14fk 492 306 183
2387334 2023-03-08 1951 375 GLA Gland for Geneva / Cointrain SUI eu JN36cj 370 230 136
2387319 2023-03-08 1800 358 TUN Tulln for Schwechat AUT eu JN78xh 963 598 88
2387315 2023-03-08 1758 355 ONW Antwerpen / Deurne BEL eu JO21ge 285 177 24
2387306 2023-03-08 1756 342.5 NWI Norwich ENG eu JO02pq 5 440 274 345
2387408 2023-03-08 1748 495 PA Pancevo SRB eu KN04hv 50 1415 879 101
2387406 2023-03-08 1746 485 IA Indija SRB eu KN05ab 60 1366 849 101
2387404 2023-03-08 1744 452 ANS Ansbach DEU eu JN59hh 566 352 81
2387403 2023-03-08 1744 445 WS Starokonstantinov UKR eu KN39pr 1765 1097 77
2387395 2023-03-08 1741 431 KBA Karlsruhe / Baden Baden DEU eu JN48bt 384 239 88
2387393 2023-03-08 1740 429 LOS Losinj HRV eu JN74fm 40 1005 624 114
2387398 2023-03-08 1740 434 KNE Kunovice CZE eu JN89rb 1063 661 83
2387402 2023-03-08 1739 438 B Bratislava / M.R Stefanik / Barka SVK eu JN88od 1057 657 88
2387400 2023-03-08 1739 438 PE Poprad / Tatry East SVK eu KN09fb 1281 796 82
2387390 2023-03-08 1738 424 PHG Phalsbourg / Bourscheid FRA eu JN38os 317 197 90
2387381 2023-03-08 1732 418 MK Calais / Dunkerque FRA eu JO10ax 244 151 346
2387383 2023-03-08 1732 419 EMT Epinal / Mirecourt FRA eu JN38ch 252 157 102
2387373 2023-03-08 1732 412 SE Strasbourg / Entzheim FRA eu JN38uo 356 221 92
2387369 2023-03-08 1731 406.5 BOT Bottrop DEU eu JO31mn 25 422 262 42
2387372 2023-03-08 1731 410 ETN Etain / Rouvres FRA eu JN29uf 10 211 131 77
2387358 2023-03-08 1725 398 LRN Lorquin / Xouaxange FRA eu JN38lq 300 186 92
2387351 2023-03-08 1723 392 AS Angers / Avrille FRA eu IN97wn 265 164 238
2387345 2023-03-08 1722 385 NWT Leczyca POL eu JO91ox 1205 749 67
2387340 2023-03-08 1722 380 HO Colmar / Houssen FRA eu JN38qd 341 212 101
2384597 2023-03-07 0303 378 WSN Weser DEU eu JO43ki 652 405 37
2384596 2023-03-07 0101 351.5 PLA Pula HRV eu JN64vv 2000 938 583 113
2384593 2023-03-06 2318 311 CEL Celle DEU eu JO52ao 25 654 406 47
2384595 2023-03-06 2202 338 OA Jonkoping SWE eu JO77bt 1242 771 32
2384594 2023-03-06 0140 325 DP Diepholz DEU eu JO42fo 25 573 356 41
2384572 2023-03-05 2222 354 MTZ Metz / Nancy-Lorraine FRA eu JN39cg 247 154 77
2384568 2023-03-05 2208 303 RTT Innsbruck / Rattenberg AUT eu JN57xk 692 430 99
2384591 2023-03-05 2157 514.5 LA Namest Nad Oslavou CZE eu JN89cd 972 604 83
2384592 2023-03-05 2154 517 ARD Arad ROU eu KN06ne 1398 869 95
2384590 2023-03-05 2145 488 ILM Illesheim DEU eu JN59el 549 341 79
2384589 2023-03-05 2145 488 NPR Tomaszow-Mazowiecki / Porter POL eu KO01bn 1261 783 69
2384588 2023-03-05 2141 468 FTZ Fritzlar DEU eu JO41pc 25 522 325 58
2384587 2023-03-05 2130 426 GBG Gleichenberg for Graz AUT eu JN76vv 100 986 613 97
2384586 2023-03-05 2129 426 MIQ Mike for Ingolstadt DEU eu JN58tn 642 399 89
2384585 2023-03-05 2129 424 PIS Zagreb / Pleso / Pisarovina HRV eu JN75wo 1044 649 105
2384583 2023-03-05 2124 420 INN Innsbruck AUT eu JN57qf 40 657 408 102
2384584 2023-03-05 2121 421 MF Halmstad SWE eu JO66jp 1091 678 33
2384582 2023-03-05 2113 417 AH Angelholm / Barkakra SWE eu JO66kg 1064 661 35
2384581 2023-03-05 2107 404 MRV Merville / Calonne FRA eu JO10iq 204 127 356
2384580 2023-03-05 2103 399.5 ONO Oostende BEL eu JO11lf 25 264 164 1
2384578 2023-03-05 2050 391 OKR Bratislava / M.R Stefanik / North SVK eu JN88pf 2000 1062 660 88
2384579 2023-03-05 2047 391 BV Beauvais / Tille FRA eu JN19al 20 92 57 319
2384577 2023-03-05 2044 388 LOU Metz / Nancy-Lorraine - Louvigny FRA eu JN38cx 244 152 85
2384576 2023-03-05 2036 382 FW Frankfurt / Raunheim DEU eu JO40fa 25 424 263 70
2384575 2023-03-05 2031 382 SBG Salzburg / Oberndorf AUT eu JN67kx 50 744 462 93
2384573 2023-03-05 2002 357 SKZ Leipzig / Halle DEU eu JO61dj 728 452 63
2384574 2023-03-05 2000 358 HW Hannover / West DEU eu JO42sl 25 619 384 46
2384571 2023-03-05 1950 354 PAD Paderborn / Lippstadt DEU eu JO41ho 25 510 317 51
2384570 2023-03-05 1947 352 LAA Niederrhein DEU eu JO31co 45 387 240 36
2384569 2023-03-05 1923 327 LNZ Linz / Horsching AUT eu JN78df 843 523 90
2384567 2023-03-05 1902 292 NKR Neckar DEU eu JN49ii 25 428 266 80
2384566 2023-03-05 1859 290 GRZ Graz AUT eu JN76rw 80 961 597 98
2384565 2023-03-05 1859 290 ONL Liege / Bierset BEL eu JO20sq 15 280 174 42
2384557 2023-03-04 2119 341 AMB Amboise FRA eu JN07mk 50 208 129 221
2384550 2023-03-04 1943 317 VS Valenciennes / Denain FRA eu JO10qi 171 106 11
2384546 2023-03-04 1933 306.5 AV Avord FRA eu JN16lv 218 135 178
2384559 2023-03-04 1915 351 BSC Brive / Souillac FRA eu JN05ta 437 271 193
2384548 2023-03-04 1811 311 LMA Lima / Bruggen DEU eu JO31ei 25 374 232 40
2384563 2023-03-04 1731 417 AX Auxerre / Branches FRA eu JN17sw 113 70 153
2384562 2023-03-04 1718 397 BLB Blois / Le Breuil FRA eu JN07oq 179 111 224
2384553 2023-03-04 1637 322 ORS Orleans / St Denis De L'Hotel FRA eu JN17cw 113 70 206
2384547 2023-03-04 1636 309 DO Dole / Tavaux FRA eu JN26px 275 171 138
2384552 2023-03-04 1636 321 ABY Albert / Bray FRA eu JN19jx 125 78 357
2384551 2023-03-04 1635 320 TY Troyes / Barberey FRA eu JN28aj 100 62 120
2384549 2023-03-04 1628 315 HOL Villacoublay / Velizy FRA eu JN08vr 25 81 50 260
2384544 2023-03-04 1618 288.5 AVD Avord FRA eu JN17jc 50 195 121 181
2384545 2023-03-04 1618 293 OB Brussels National BEL eu JO20hw 263 164 27
2384543 2023-03-04 1615 286.5 TA Villacoublay / Velizy FRA eu JN18bs 25 56 35 260
2384561 2023-03-04 1543 367 VAT Chalon / Vatry FRA eu JN28at 86 53 92
2384560 2023-03-04 1542 360.5 MAK Mackel for Brussels Ntl BEL eu JO10rx 240 149 9
2384558 2023-03-04 1541 347 CVT Chalons / Vatry FRA eu JN28ds 104 65 94
2384556 2023-03-04 1540 339 GI Amiens / Glisy FRA eu JN19fu 115 72 344
2384564 2023-03-04 1532 334 POY Paris / Orly FRA eu JN18er 39 24 249
2384555 2023-03-04 1531 327 MVC Merville / Calonne FRA eu JO10hn 191 119 354
2384554 2023-03-04 1530 326 LM Le Mans / Arnage FRA eu JN07cv 50 224 139 242
2387377 2023-03-01 0141 414 STA Stafjord A Platform XOE iw JP01wg 1382 859 357
2384542 2020-11-04 2042 544 LF8S Eldfisk 2/7 S XOE iw JO16oh 830 515 1
1983824 2020-10-27 0320 395 OB Marseille / Provence FRA eu JN23tf 25 660 410 160
1983826 2020-10-27 0113 423 TS Toulouse / Blagnac FRA eu JN03rm 15 603 375 190
1983825 2020-10-27 0000 397 EG Grenoble / St Geoirs FRA eu JN25qi 433 269 153
1983822 2020-10-26 2306 428 MUS Nice / Cote d'Azur FRA eu JN33hj 40 672 418 153
1983821 2020-10-26 2252 425 DNC Mostar BIH eu JN83wd 100 1318 819 113
1983823 2020-10-26 2247 493 C Papa HNG eu JN87rj 1093 679 93
1983820 2020-10-26 2159 413 ALM Aix Les Milles FRA eu JN23qm 25 623 387 161
1983819 2020-10-26 2159 390.5 ITR Istres / Le Tube FRA eu JN23lm 614 382 164
1983818 2020-10-26 2145 385 CSC Cannes / Ile de Leirins FRA eu JN33mm 674 419 150
1983816 2020-10-26 0512 289 RI Rijeka / Krk HRV eu JN75hd 980 609 110
1983817 2020-10-26 0227 296 MG Ljubljana SVN eu JN76ge 924 574 104
1983815 2020-10-25 2312 364 MAL Gallarate / Malpensa (VA) ITA eu JN45jn 577 359 127
1983813 2020-10-25 2308 356 WBA Wolverhampton ENG eu IO82um 546 339 320
1983811 2020-10-25 2257 318 KLP Dubrovnik / Kolocep HRV eu JN92aq 50 1358 844 114
1983812 2020-10-25 2256 318 GEN Genova (GE) ITA eu JN44mk 680 422 133
1983810 2020-10-25 2252 316 TNJ Tounj HRV eu JN75qg 1026 637 108
1983805 2020-10-25 2251 316 CAL Cagliari / Elmas SAR eu JM49mf 1177 731 153
1983809 2020-10-25 2246 308 MOJ Mojkovac MNE eu JN92sw 40 1444 897 110
1983806 2020-10-25 1723 265 KAV Pula / Kavran HRV eu JN74av 50 955 593 113
1983814 2020-10-25 1648 360 SR Saarbrucken / Ensheim DEU eu JN39of 25 319 198 80
1983807 2020-10-25 0142 267.5 OPW Bucuresti / Otopeni ROU eu KN24xn 1816 1128 96
1983808 2020-10-25 0103 276 YHR Chevery QC CAN na GO00el 500 4366 2713 296
1983799 2020-10-24 2321 275 O UNID XUF xx
1983800 2020-10-24 2212 277 CHT Chiltern ENG eu IO91ro 25 390 243 322
1983801 2020-10-24 2212 375 OO Oostende BEL eu JO11ke 259 161
1983802 2020-10-24 2159 401 BPL Bari / Palese (BA) ITA eu JN81gc 1374 854 123
1983803 2020-10-24 2139 423 ZO Nis / Zitoradja SRB eu KN03ue 1579 981 106
1983804 2020-10-24 2055 470 UZ Uzice / Ponikve SRB eu JN93wu 1414 879 106
1983789 2020-10-22 2236 394 NV Nevers / Fourchambault FRA eu JN16ow 215 133 173
1983790 2020-10-22 2230 395 B Bilbao ESP eu IN83li 762 474 218
1983791 2020-10-22 2222 396 ROC Rochefort / St Agnant FRA eu IN95mv 438 272 222
1983792 2020-10-22 2215 399.5 ONO Oostende BEL eu JO11lf 25 264 164 1
1983793 2020-10-22 2213 402 OP Brussels National BEL eu JO20hw 263 164 27
1983794 2020-10-22 2207 406 TW Toulouse / Blagnac FRA eu JN03mm 15 610 379 194
1983795 2020-10-22 2159 412 GRN Gerona ESP eu JN12ja 250 760 472 180
1983796 2020-10-22 2152 425 EVR Evora POR eu IM68bm 50 1435 891 220
1983798 2020-10-22 2050 470 QL Taganrog RUS eu KN97kg 2656 1650 80
1983797 2020-10-22 2048 465 NED Deblin POL eu KO01vn 1375 854 70
1983784 2020-10-21 0552 433 VON Vigo ESP eu IN52qe 200 1161 721 234
1983771 2020-10-21 0526 356 SGO Sagunto ESP eu IM99vq 300 1048 651 194
1983785 2020-10-21 0522 436 S Darlowo POL eu JO84ej 1114 692 51
1983770 2020-10-21 0508 354 PAD Paderborn / Lippstadt DEU eu JO41ho 25 510 317 51
1983769 2020-10-21 0331 354 PP Pamplona ESP eu IN92du 755 469 209
1983782 2020-10-21 0329 384 PMR Pamiers / Les Pujols FRA eu JN03tc 647 402 189
1983783 2020-10-21 0326 387 AV Asturias / Aviles ESP eu IN73am 20 901 560 232
1983788 2020-10-21 0310 433 VNS Castor UGS XOE iw JN00ij 956 594 191
1983772 2020-10-21 0257 356 CVU Castres / Mazamet FRA eu JN13cp 581 361 185
1983786 2020-10-21 0213 440 BHL UNID XUU xx
1983787 2020-10-21 0156 332 TLF Toulouse / Francazal FRA eu JN03oo 598 371 192
1983767 2020-10-21 0130 321 GL Berlin / Tegel / East DEU eu JO62rn 50 850 528 57
1983776 2020-10-21 0128 373 KEM Kemi-Tornio / Hirmula FIN eu KP25hu 25 2271 1411 25
1983775 2020-10-21 0127 371 STR Sintra POR eu IM58hv 1476 917 225
1983778 2020-10-21 0117 380 RQ Quimper / Pluguffan FRA eu IN87ax 25 513 319 261
1983773 2020-10-21 0113 368.5 ELU Luxembourg-Berg LUX eu JN39eq 15 270 168 68
1983781 2020-10-21 0102 381 SIB Sibiu / Turnisor ROU eu KN25bs 1632 1014 94
1983780 2020-10-21 0100 380 FIL Horta / Faial Island AZR eu HM58pm 700 2761 1716 257
1983779 2020-10-21 0058 380 KN Beograd / Krnjesevci SRB eu KN04bv 1379 857 102
1983777 2020-10-21 0058 380 VNV Vilanova i la Geltru ESP eu JN01uf 853 530 186
1983768 2020-10-21 0029 346 OC Cognac / Chateaubernard FRA eu IN95wr 415 258 214
1983774 2020-10-21 0010 369 VRS Vrsar HRV eu JN65tf 908 564 112
1983752 2020-10-20 2334 387 RZ Rodez / Marcillac FRA eu JN14fk 492 306 183
1983751 2020-10-20 2302 375 BRG Bourges FRA eu JN17da 208 130 192
1983762 2020-10-20 2256 438 K Praha Kbely / Kalda CZE eu JO70gd 854 530 75
1983734 2020-10-20 2236 334 DX Dax / Seyresse FRA eu IN93lq 648 403 209
1983733 2020-10-20 2234 311 CEL Celle DEU eu JO52ao 25 654 406 47
1983749 2020-10-20 2227 373 NW Maastricht / Beek HOL eu JO21wa 15 323 200 40
1983763 2020-10-20 2226 452 ANS Ansbach DEU eu JN59hh 566 352 81
1983753 2020-10-20 2213 399 EAG Logrono / Agoncillo ESP eu IN82uk 25 818 508 211
1983755 2020-10-20 2205 404 CNE Caen / Carpiquet FRA eu IN99uc 25 233 145 278
1983754 2020-10-20 2204 401 COA La Coruna ESP eu IN53ui 250 1054 655 238
1983745 2020-10-20 2201 371 MYN Munster / Osnabruck DEU eu JO32vd 25 505 314 41
1983750 2020-10-20 2200 373 D Tirgu Mures ROU eu KN26el 1626 1010 91
1983746 2020-10-20 2159 372 ODR Kristiansand / Kjevik / Odderoy NOR eu JO38xd 1086 675 16
1983747 2020-10-20 2157 372 NOR Nordholz DEU eu JO43js 30 684 425 34
1983744 2020-10-20 2157 370.5 LB Angelholm / Barkakra SWE eu JO66ji 1067 663 34
1983748 2020-10-20 2154 372 CE Osijek / Cepin HRV eu JN95gm 50 1238 769 101
1983764 2020-10-20 2154 458 LP Chernyakhovsk KAL eu KO04vo 1445 898 56
1983758 2020-10-20 2148 432 AKU Ivalo / Akujarvi FIN eu KP38tq 2586 1607 22
1983736 2020-10-20 2140 341 BZ Biarritz / Bayonne / Anglet FRA eu IN93hl 25 681 423 210
1983761 2020-10-20 2126 436 SME Sarmellek / Balaton HNG eu JN86op 1098 682 97
1983731 2020-10-20 2122 285 LCF Linkoping / Malmen SWE eu JO78rh 1336 830 33
1983742 2020-10-20 2111 369 MNE Munchen DEU eu JN58ui 25 651 405 91
1983740 2020-10-20 2111 365 L Karlovy Vary / Vrata CZE eu JO60le 742 461 74
1983760 2020-10-20 2110 435 BR Brdjani SRB eu KN03fw 1451 901 105
1983743 2020-10-20 2110 369 GL Nantes / Atlantique FRA eu IN97db 50 395 245 241
1983741 2020-10-20 2109 368 TLB Toulouse / Blagnac FRA eu JN03rw 557 346 191
1983766 2020-10-20 2109 367 ASM Clermont-Ferrand / Auvergne FRA eu JN15qt 340 211 173
1983732 2020-10-20 2108 295 DC Debrecen HNG eu KN07sk 1390 864 89
1983759 2020-10-20 2106 434 KNE Kunovice CZE eu JN89rb 1063 661 83
1983757 2020-10-20 2101 430 AJ Staritza RUS eu KO76lm 2298 1428 56
1983756 2020-10-20 2049 428 TGM Targu Mures / Vidrasau ROU eu KN26dk 1621 1007 91
1983735 2020-10-20 2044 338 OA Jonkoping SWE eu JO77bt 1242 771 32
1983739 2020-10-20 2043 364 PU Pau / Pyrenees FRA eu IN93uh 663 412 202
1983737 2020-10-20 1938 360 ULV Bronnoysund / Ulvingen NOR eu JP65bp 1943 1207 12
1983738 2020-10-20 1937 360 O Oradea ROU eu KN07wb 1425 885 90
1983765 2020-10-20 1825 284 GNA Gorna BUL eu KN23td 1860 1156 101
1983730 2020-10-10 2122 358 TUN Tulln for Schwechat AUT eu JN78xh 963 598 88
1983729 2020-10-10 2116 352 WOD Woodley ENG eu IO91nk 392 244 318
1983728 2020-10-09 1850 358 MSE Munchen DEU eu JN58th 25 646 401 92
1983726 2020-10-05 0229 321 TL Tarbes / Ossun / Lourdes FRA eu JN03ag 100 658 409 200
1983724 2020-10-05 0130 312 BOZ Bozhurishte BUL eu KN12os 1708 1061 105
1983725 2020-10-05 0039 318 HIG Bremen DEU eu JO43kb 25 628 390 39
1983723 2020-10-05 0014 463 CL Cerklje SVN eu JN75rv 1002 622 104
1983727 2020-10-05 0000 495 PA Pancevo SRB eu KN04hv 50 1415 879 101
1983722 2020-10-04 2351 520 NW Leczyca POL eu JO91ox 1205 749 67
1983720 2020-10-04 2330 375 CHO Chociwel POL eu JO73pl 1005 624 54
1983719 2020-10-04 2324 370 GAC Gacko BIH eu JN93gd 40 1363 847 111
1983718 2020-10-04 2056 357.5 FAL Falconara Marittima (AN) ITA eu JN63qp 25 992 616 121
1983717 2020-10-04 2056 345.5 CF Caslav / Chotusice / Centograf CZE eu JN79rv 917 570 78
1983721 2020-10-04 1737 385 OAN Orleans / Bricy FRA eu JN08va 25 122 76 221
1983716 2020-10-04 1713 341 AMB Amboise FRA eu JN07mk 50 208 129 221
1983715 2020-10-03 0119 345 BN Kristiansand / Kjevik / Birkeland NOR eu JO48ch 1108 689 16
1983714 2020-10-03 0117 345 CS Carcassonne / Salvaza FRA eu JN13cf 628 390 184
1983713 2020-10-03 0115 344 WCK Wick SCT eu IO88lk 25 1134 704 342
1983711 2020-10-03 0111 342.5 NWI Norwich ENG eu JO02pq 5 440 274 345
1983712 2020-10-03 0110 343 GRA Grazzanise (CE) ITA eu JN71bb 1236 768 130
1983710 2020-10-03 0055 319 ECV Colmenar Viejo ESP eu IN80cq 50 1049 652 212
1983704 2020-10-02 2230 490 WAK Vakarel BUL eu KN12un 1755 1090 105
1983705 2020-10-02 2227 508 Z Zilina / Hlinik SVK eu JN99hf 1147 712 81
1983708 2020-10-02 2222 514 GO Amari Air Base EST eu KO29dg 1801 1119 41
1983706 2020-10-02 2221 514.5 LA Namest Nad Oslavou CZE eu JN89cd 972 604 83
1983707 2020-10-02 2155 517 ARD Arad ROU eu KN06ne 1398 869 95
1983690 2020-10-02 2154 494 NOW Oksywie POL eu JO94gn 1248 776 53
1983703 2020-10-02 2140 445 ZU Starokonstantinov UKR eu KN39ok 1763 1096 78
1983697 2020-10-02 2128 395 FC Figeac / Livernon FRA eu JN04vq 471 292 190
1983698 2020-10-02 2126 397 PO Pau / Pyrenees FRA eu IN93wh 658 409 201
1983699 2020-10-02 2125 397 EHN Eindhoven HOL eu JO21ql 15 342 212 30
1983702 2020-10-02 2117 400 MSW Munchen DEU eu JN58wi 100 664 412 91
1983700 2020-10-02 2116 398 MT St Nazaire / Montoir FRA eu IN87xi 50 401 249 247
1983701 2020-10-02 2115 398 LRN Lorquin / Xouaxange FRA eu JN38lq 300 186 92
1983696 2020-10-02 2057 391 CC Chalon / Champforgeuil FRA eu JN26kr 280 174 146
1983695 2020-10-02 2052 389 PX Perigueux / Bassillac FRA eu JN05ke 25 435 270 201
1983694 2020-10-02 2051 389 ZRZ Zaragoza ESP eu IN91jr 300 854 531 203
1983691 2020-10-02 2046 354 NG Nimes / Garons FRA eu JN23eu 25 568 353 167
1983709 2020-10-02 2040 386 LNE Milano / Linate (MI) ITA eu JN45pi 622 386 126
1983693 2020-10-02 2039 385 NWT Leczyca POL eu JO91ox 1205 749 67
1983692 2020-10-02 2012 382 LAR Arruda POR eu IM58lx 1451 902 225
1983688 2020-10-01 0422 325 AST Asturias ESP eu IN63xn 903 561 232
1983689 2020-10-01 0415 474.5 SA Darlowo POL eu JO84ek 1116 694 51
1983687 2020-10-01 0402 323 ONC Charleroi / Gosselies BEL eu JO20gl 25 217 135 32
1983679 2020-09-30 2240 400 AG Agen / La Garenne FRA eu JN04id 549 341 198
1983678 2020-09-30 2231 357 SKZ Leipzig / Halle DEU eu JO61dj 728 452 63
1983686 2020-09-30 2225 343 KUS Kaunas / Karmelava LTU eu KO24bx 100 1600 994 56
1983676 2020-09-30 2212 317 PPD Poprad / Tatry SVK eu KN09eb 1275 792 82
1983677 2020-09-30 2208 317 OZ Kardla EST eu KO18kw 1713 1064 41
1983685 2020-09-30 2152 477 RP Malacky - Kuchyna SVK eu JN88nl 1046 650 86
1983683 2020-09-30 2149 438 PE Poprad / Tatry East SVK eu KN09fb 1281 796 82
1983684 2020-09-30 2146 438 B Bratislava / M.R Stefanik / Barka SVK eu JN88od 1057 657 88
1983682 2020-09-30 2142 432 PK Pardubice / Prvek CZE eu JO70va 942 585 77
1983681 2020-09-30 2109 412 GRA Granada ESP eu IM87de 25 1402 871 204
1983680 2020-09-30 2059 405 JST Nis / Justic SRB eu KN03tk 50 1560 969 105
1983665 2020-09-28 2330 337 MY Myggenaes FRO eu IP62ec 1610 1001 340
1983675 2020-09-28 2127 398 LPD Montlucon / Gueret FRA eu JN16eh 285 177 187
1983674 2020-09-28 2109 374 BGC Bergerac / Roumaniere FRA eu JN04ht 25 481 299 201
1983673 2020-09-28 2108 373 LCT Le Luc / Le Cannet FRA eu JN33ej 664 413 154
1983672 2020-09-28 2104 372 PY Le Puy / Loudes FRA eu JN15va 432 268 170
1983671 2020-09-28 2056 370 BSV Besancon / La Veze FRA eu JN37cg 304 189 124
1983669 2020-09-28 2037 353 BN Basle / Mulhouse / Habsheim FRA eu JN37rp 365 227 109
1983668 2020-09-28 2031 344 MN Menorca BAL eu JM29cu 200 1006 625 173
1983667 2020-09-28 2026 343 AR Aurillac FRA eu JN14ew 437 272 185
1983666 2020-09-28 2025 341 IS Ajaccio / Campo del Oro COR eu JN41hv 50 894 555 147
1983663 2020-09-28 2015 334 GMN Gormanston IRL eu IO63vp 826 513 313
1983664 2020-09-28 2012 335 WCO Westcott ENG eu IO91mu 430 267 322
1983662 2020-09-28 2007 333.5 VOG Voghera (PV) ITA eu JN44lx 631 392 130
1983661 2020-09-28 1949 320 LSU Limoges / Bellegarde FRA eu JN05ns 367 228 201
1983660 2020-09-28 1941 306.5 AV Avord FRA eu JN16lv 218 135 178
1983670 2020-09-28 1938 355 ONW Antwerpen / Deurne BEL eu JO21ge 285 177 24
1953261 2020-09-25 2345 418 ORA Oradea ROU eu KN07xc 1430 888 90
1953267 2020-09-25 2334 426 CTS Castets FRA eu IN93kw 627 389 210
1953270 2020-09-25 2326 433 JER Jerez ESP eu IM66xu 50 1517 943 211
1953271 2020-09-25 2318 444 NRD Inowroclaw POL eu JO92eu 1172 728 61
1953272 2020-09-25 2313 460 AS UNID XUE xx
1953259 2020-09-25 2307 415 TOE Toulouse / Blagnac FRA eu JN03ul 15 604 375 188
1953273 2020-09-25 2243 485 IA Indija SRB eu KN05ab 60 1366 849 101
1953275 2020-09-25 2239 489 SIL Siegen / Siegerland DEU eu JO40bq 25 428 266 59
1953274 2020-09-25 2224 488 NPR Tomaszow-Mazowiecki / Porter POL eu KO01bn 1261 783 69
1953238 2020-09-25 0238 302 ROM Rodez / Marcillac FRA eu JN14hi 501 311 182
1953241 2020-09-25 0058 332 LL Lille / Lesquin FRA eu JO10on 191 119 7
1953240 2020-09-25 0057 330 MB Montbeliard / Courcelles FRA eu JN37lm 337 209 114
1953260 2020-09-25 0037 418 SAL Sainte Leocadie FRA eu JN12ak 716 445 185
1953242 2020-09-25 0005 346 CH Chambery / Aix-Les-Bains FRA eu JN25wo 426 265 146
1953239 2020-09-24 2342 319 VAR Stavanger / Sola / Varhaug NOR eu JO28tp 25 1103 686 8
1953254 2020-09-24 2337 393 BD Bordeaux / Merignac FRA eu IN94rw 507 315 212
1953256 2020-09-24 2325 404 LRD Lerida ESP eu JN01hn 250 830 515 193
1953255 2020-09-24 2320 403 VZ Vichy / Charmeil FRA eu JN16qd 303 189 172
1953257 2020-09-24 2318 406 MJ Marseille / Provence FRA eu JN23ok 25 628 390 162
1953258 2020-09-24 2309 412 SE Strasbourg / Entzheim FRA eu JN38uo 356 221 92
1953262 2020-09-24 2238 421 MF Halmstad SWE eu JO66jp 1091 678 33
1953263 2020-09-24 2232 422 PAM Pamplona ESP eu IN92er 100 765 475 208
1953264 2020-09-24 2230 423 FE Odense / Beldringe DNK eu JO55fm 903 561 31
1953265 2020-09-24 2225 424 RUS Reus ESP eu JN01nd 200 868 539 189
1953266 2020-09-24 2224 425 ERT Erfurt DEU eu JO50kx 619 385 64
1953268 2020-09-24 2207 429 LOS Losinj HRV eu JN74fm 40 1005 624 114
1953269 2020-09-24 2202 430 SN St Yan FRA eu JN26bh 298 185 161
1953243 2020-09-22 2003 348 CL Cahors / Lalbenque FRA eu JN04rj 507 315 192
1953253 2020-09-22 0253 391 OKR Bratislava / M.R Stefanik / North SVK eu JN88pf 2000 1062 660 88
1946555 2020-09-18 2323 392 AS Angers / Avrille FRA eu IN97wn 265 164 238
1953245 2020-09-17 0334 351 OSA Ouessant FRA eu IN78ll 583 362 268
1953247 2020-09-17 0312 358 RNN Roanne / Renaison FRA eu JN26ac 318 198 163
1953250 2020-09-17 0305 380 HO Colmar / Houssen FRA eu JN38qd 341 212 101
1953252 2020-09-17 0228 390 AVI Aviano (PN) ITA eu JN65fw 35 790 491 110
1953251 2020-09-17 0224 387 BGP Brest Guipavas FRA eu IN78tk 534 332 267
1953249 2020-09-17 0215 375 GLA Gland for Geneva / Cointrain SUI eu JN36cj 370 230 136
1953246 2020-09-17 0212 357 CAS Caselle Torinese (TO) ITA eu JN35tc 25 551 342 137
1953248 2020-09-17 0130 372 OZN Prins Christian Sund / Kitaa GRL na GP80kb 3144 1954 310
1946530 2020-09-17 0038 342 VA Vannes / Meucon FRA eu IN87qs 424 263 255
1946528 2020-09-17 0023 339 BIA Bournemouth ENG eu IO90bs 40 402 250 303
1946526 2020-09-17 0007 338 MNW Munchen DEU eu JN58wi 25 664 412 91
1946523 2020-09-16 2343 330 SRN Saronno (VA) ITA eu JN45mp 586 364 125
1946515 2020-09-16 2324 323 AB Albi / Le Sequestre FRA eu JN13av 555 345 186
1946535 2020-09-16 2243 347 NQY Newquay ENG eu IO70mk 50 590 367 290
1953244 2020-09-16 2211 350 BLA Cerrione (BI) ITA eu JN45bl 546 339 131
1946495 2020-09-16 2158 291 WS Grenoble / St Geoirs FRA eu JN25ni 425 264 155
1946491 2020-09-16 2111 288.5 AVD Avord FRA eu JN17jc 50 195 121 181
1946494 2020-09-16 2110 290 GRZ Graz AUT eu JN76rw 80 961 597 98
1946582 2020-09-16 0155 428 CTX Chateauroux / Deols FRA eu JN06vw 50 228 142 201
1946537 2020-09-16 0100 350 MUT Muret / Lherm FRA eu JN03ol 611 380 192
1946531 2020-09-16 0045 345 LN Lannion / Servel FRA eu IN88ir 25 452 281 270
1946506 2020-09-16 0000 317 VS Valenciennes / Denain FRA eu JO10qi 171 106 11
1946504 2020-09-15 2338 314 OZ Brussels National BEL eu JO20ft 246 153 26
1946516 2020-09-14 0232 325 VG Zagreb / Pleso / Velika Gorica HRV eu JN85ar 1050 653 104
1946509 2020-09-14 0220 320 VE Valence / Chabeuil FRA eu JN24lu 15 472 293 159
1946498 2020-09-14 0156 303 RTT Innsbruck / Rattenberg AUT eu JN57xk 692 430 99
1946500 2020-09-13 2341 309 DO Dole / Tavaux FRA eu JN26px 275 171 138
1946583 2020-09-13 2330 433 CRE Cres HRV eu JN74fv 40 983 611 112
1946579 2020-09-13 2327 426 MIQ Mike for Ingolstadt DEU eu JN58tn 642 399 89
1946577 2020-09-13 2320 425 MMP Gallarate / Malpensa (VA) ITA eu JN45ip 566 352 126
1946571 2020-09-13 2314 418 MK Calais / Dunkerque FRA eu JO10ax 244 151 346
1946557 2020-09-13 2252 400.5 COD Codogno (LO) ITA eu JN45sf 646 401 126
1946554 2020-09-13 2249 391 BV Beauvais / Tille FRA eu JN19al 20 92 57 319
1946552 2020-09-13 2246 386 LNE Milano / Linate (MI) ITA eu JN45pi 622 386 126
1946536 2020-09-13 2217 349.5 SZA Solenzara COR eu JN41qw 25 921 572 144
1946533 2020-09-13 2208 346 WLU Luxembourg LUX eu JN39an 15 243 151 69
1946529 2020-09-13 2200 339 GI Amiens / Glisy FRA eu JN19fu 115 72 344
1946527 2020-09-13 2152 338 NC Nice / Cote D'azur FRA eu JN33no 40 669 416 149
1946522 2020-09-13 2142 330 OB Bratislava / M.R Stefanik / South SVK eu JN88pc 1064 661 89
1946514 2020-09-13 2121 322 TLN Hyeres / Le Palyvestre FRA eu JN33ba 50 695 432 157
1946508 2020-09-13 2115 318 LE Luxembourg-Est LUX eu JN39dp 263 163 69
1946503 2020-09-13 2059 313 KI Klagenfurt AUT eu JN76ep 893 555 101
1946502 2020-09-13 2046 312 BOZ Bozhurishte BUL eu KN12os 1708 1061 105
1946496 2020-09-13 1940 292 NKR Neckar DEU eu JN49ii 25 428 266 80
1946493 2020-09-13 1931 290 ONL Liege / Bierset BEL eu JO20sq 15 280 174 42
1946576 2020-09-12 2224 424 PIS Zagreb / Pleso / Pisarovina HRV eu JN75wo 1044 649 105
1946566 2020-09-12 2218 413.5 DLS Berlin / Tempelhof / Lubars DEU eu JO62qo 50 847 526 56
1946569 2020-09-12 0515 417 LI Dusseldorf DEU eu JO31ki 25 398 247 44
1946570 2020-09-12 0515 417 AX Auxerre / Branches FRA eu JN17sw 113 70 153
1946565 2020-09-12 0509 410 SI Salzburg AUT eu JN67lt 754 468 95
1946561 2020-09-12 0506 406.5 BOT Bottrop DEU eu JO31mn 25 422 262 42
1946560 2020-09-12 0504 404 AGO Angouleme / Brie Champniers FRA eu JN05fr 392 244 208
1946559 2020-09-12 0501 404 MRV Merville / Calonne FRA eu JO10iq 204 127 356
1946549 2020-09-12 0442 376 HAN Hahn DEU eu JN39px 25 343 213 66
1946544 2020-09-12 0434 360.5 MAK Mackel for Brussels Ntl BEL eu JO10rx 240 149 9
1946534 2020-09-12 0425 347 CVT Chalons / Vatry FRA eu JN28ds 104 65 94
1946532 2020-09-12 0425 346 LHO Le Havre / Octeville FRA eu JN09co 211 131 294
1946575 2020-09-12 0404 424 PHG Phalsbourg / Bourscheid FRA eu JN38os 317 197 90
1946581 2020-09-12 0143 428 BST Lanveoc / Poulmic FRA eu IN78sg 25 543 338 265
1946574 2020-09-12 0139 421 GE Madrid / Grinon ESP eu IN80be 1101 684 211
1946572 2020-09-12 0135 419 EMT Epinal / Mirecourt FRA eu JN38ch 252 157 102
1946573 2020-09-12 0128 420 INN Innsbruck AUT eu JN57qf 40 657 408 102
1946568 2020-09-12 0121 417 AH Angelholm / Barkakra SWE eu JO66kg 1064 661 35
1946567 2020-09-12 0114 414 BRI Bristol / Filton ENG eu IO81pj 488 303 307
1946564 2020-09-12 0112 410 C La Coruna ESP eu IN53th 1062 660 238
1946563 2020-09-12 0111 410 ETN Etain / Rouvres FRA eu JN29uf 10 211 131 77
1946558 2020-09-12 0106 401 LA Laval / Entrammes FRA eu IN97px 282 175 251
1946553 2020-09-12 0058 388 LOU Metz / Nancy-Lorraine - Louvigny FRA eu JN38cx 244 152 85
1946547 2020-09-12 0045 367 ZAG Zagreb HRV eu JN85dv 50 1061 659 103
1946542 2020-09-12 0038 358 BRS Biscarosse / Parentis FRA eu IN94ki 586 364 212
1946520 2020-09-12 0007 328 HIG San Sebastian ESP eu IN93cj 200 705 438 212
1946521 2020-09-12 0001 329 JW Jersey JSY eu IN89ve 372 231 277
1946501 2020-09-11 2352 311 LMA Lima / Bruggen DEU eu JO31ei 25 374 232 40
1946499 2020-09-11 2352 307 DIK Diekirch LUX eu JN39bu 260 162 63
1946580 2020-09-11 2248 427 RY Royan / Medis FRA eu IN95no 459 285 219
1946578 2020-09-11 2248 426 GBG Gleichenberg for Graz AUT eu JN76vv 100 986 613 97
1946562 2020-09-11 2236 408 BRK Wien / Schwechat / Bruck AUT eu JN88ib 1022 635 89
1946556 2020-09-11 2229 397 BLB Blois / Le Breuil FRA eu JN07oq 179 111 224
1946551 2020-09-11 2224 382 SBG Salzburg / Oberndorf AUT eu JN67kx 50 744 462 93
1946550 2020-09-11 2221 378 WSN Weser DEU eu JO43ki 652 405 37
1946548 2020-09-11 2214 367 VAT Chalon / Vatry FRA eu JN28at 86 53 92
1946546 2020-09-11 2211 363 PI Poitiers / Biard FRA eu JN06eq 50 305 189 218
1946545 2020-09-11 2211 361 NB Bordeaux / Merignac FRA eu IN95rd 25 487 303 213
1946543 2020-09-11 2208 359 LOR Lorient / Lann Bihoue FRA eu IN87gs 100 483 300 257
1946541 2020-09-11 2205 357 LP Cholet / Le Pontreau FRA eu IN97nd 337 210 237
1946540 2020-09-11 2202 354 MTZ Metz / Nancy-Lorraine FRA eu JN39cg 247 154 77
1946538 2020-09-11 2156 351 BSC Brive / Souillac FRA eu JN05ta 437 271 193
1946539 2020-09-11 2156 351.5 PLA Pula HRV eu JN64vv 2000 938 583 113
1946524 2020-09-11 2141 331 TUR Tours / Val De Loire FRA eu JN07jn 15 211 131 227
1946519 2020-09-11 2139 327 LNZ Linz / Horsching AUT eu JN78df 843 523 90
1946518 2020-09-11 2134 327 MVC Merville / Calonne FRA eu JO10hn 191 119 354
1946517 2020-09-11 2133 326 LM Le Mans / Arnage FRA eu JN07cv 50 224 139 242
1946497 2020-09-11 2128 293 OB Brussels National BEL eu JO20hw 263 164 27
1946510 2020-09-11 2126 320 TY Troyes / Barberey FRA eu JN28aj 100 62 120
1946511 2020-09-11 2126 321 ABY Albert / Bray FRA eu JN19jx 125 78 357
1946492 2020-09-11 2115 289 HR Hericourt FRA eu JN37in 25 318 198 115
1946525 2020-09-11 1936 334 POY Paris / Orly FRA eu JN18er 39 24 249
1946513 2020-09-11 1933 322 ORS Orleans / St Denis De L'Hotel FRA eu JN17cw 113 70 206
1946505 2020-09-11 1931 315 HOL Villacoublay / Velizy FRA eu JN08vr 25 81 50 260
1946507 2020-09-11 1931 318 BE Bordeaux / Merignac FRA eu IN94tu 25 509 316 210
1946490 2020-09-11 1927 286.5 TA Villacoublay / Velizy FRA eu JN18bs 25 56 35 260
1946584 2020-09-11 1927 434 MV Melun / Villaroche FRA eu JN18ln 33 21 169
1946512 2020-09-11 0412 322 RL La Rochelle / Ile De Re FRA eu IN96ke 422 262 226
550636 2011-03-16 2138 366 KM Kalmar SWE eu JO86cr 1249 776 40
550637 2011-03-13 1912 427.5 TTN Triton / Kvaerner Platform XOE iw JO07la 917 570 352
549848 2011-03-09 2216 392.5 TOP Torino / Poirino (TO) ITA eu JN34ww 578 359 137
549853 2011-03-09 2214 399 MTN Salamanca / Matacan ESP eu IN70ix 100 1085 674 219
549852 2011-03-09 2213 398 PRU Perugia / San Egidio ITA eu JN63gc 982 610 126
549849 2011-03-09 2211 394 IZA Ibiza BAL eu JM08rv 200 1113 692 186
549851 2011-03-09 2209 396 RON Ronchi dei Legionari (GO) ITA eu JN65qt 25 860 534 109
549850 2011-03-09 2208 395 FC Figeac / Livernon FRA eu JN04vq 471 292 190
548353 2011-02-28 0448 380 FIL Horta / Faial Island AZR eu HM58pm 700 2761 1716 257
548287 2011-02-28 0211 371 CAG Elmas (CA) SAR eu JM49nf 25 1180 733 152
548347 2011-02-28 0109 380 WFD Manchester / Woodford ENG eu IO83wi 610 379 327
548342 2011-02-28 0012 378.5 NN Northampton / Sywell ENG eu IO92oh 463 288 327
548368 2011-02-27 2335 383 NA Banja Luka BIH eu JN84pw 40 1176 731 106
548362 2011-02-27 2309 382 SF Sondrostrom / Kangerlussuaq GRL na GP46mx 3595 2234 323
548375 2011-02-27 2258 383.5 ARF Arifiye / Topel TUR as KN50br 2316 1439 102
548339 2011-02-27 2210 378 OS Sundsvall / Harnosand SWE eu JP82rl 1760 1094 25
548371 2011-02-27 2020 383 ERK Erken SWE eu JO99ev 1578 980 33
548349 2011-02-27 2003 380 ULA Ula / BP Platform XOE iw JO17kc 50 917 570
548376 2011-02-27 1939 384 TY Torsby / Fryklanda SWE eu JP60mc 1409 876 23
548274 2011-02-27 1924 370 KS Kinloss SCT eu IO87ep 100 1068 663 338
548358 2011-02-27 0358 381 LCZ Murcia / San Javier / Los Alcazares ESP eu IM97mq 200 1279 795 195
548282 2011-02-27 0321 371 MYN Munster / Osnabruck DEU eu JO32vd 25 505 314 41
548327 2011-02-27 0212 376 TL Lerwick / Tingwall / Shetland Isl. SHE eu IP90je 1287 800 349
548334 2011-02-27 0104 377 MGB Monchengladbach DEU eu JO31gf 372 231 43
548304 2011-02-27 0029 374 S Mikkeli FIN eu KP31pp 2079 1292 37
548321 2011-02-27 0017 375 FR Pori / Vanhakyla FIN eu KP01xk 1837 1142 33
548378 2011-02-26 2242 384 PMR Pamiers / Les Pujols FRA eu JN03tc 647 402 189
548370 2011-02-26 2233 383 GDB Gdansk / Rebiechowo POL eu JO94gi 1239 770 54
548364 2011-02-26 2229 382 LAR Arruda POR eu IM58lx 1451 902 225
548350 2011-02-26 2225 380 LF Ronneby / Kallinge SWE eu JO76oe 1163 723 40
548379 2011-02-26 2225 384 NS Skovde SWE eu JO78af 1274 791 30
548314 2011-02-26 2209 375 TR Phillips / Tor E Platform XOE iw JO16pp 50 867 539 1
548283 2011-02-26 2055 371 MLX Morlaix / Ploujean FRA eu IN88cp 489 304 269
548301 2011-02-26 2021 373 KEM Kemi-Tornio / Hirmula FIN eu KP25hu 25 2271 1411 25
548325 2011-02-26 0457 375 AY Warzaw / Okecie / Piaseczno POL eu KO02le 1327 825 66
548316 2011-02-26 0213 375 SNR Snorre XOE iw JP11bk 1400 870 358
548310 2011-02-26 0207 374 BL Forde / Bringeland NOR eu JP21vj 1406 874 6
548288 2011-02-26 0139 371 BRS Bremsnes for Kristiansund / Kvernberget NOR eu JP33tc 50 1611 1001 8
548333 2011-02-26 0137 377 SM Mora / Siljan SWE eu JP70ev 1523 946 24
548307 2011-02-26 0053 374 FLV Bodo / Fleinvaer NOR eu JP67vd 2126 1321 12
548275 2011-02-26 0046 370 JR Varkaus / Joroinen FIN eu KP32wd 25 2134 1326 36
548303 2011-02-26 0027 374 TAN Tanger / Ibn Batouta MRC af IM75cr 1622 1008 209
548300 2011-02-26 0026 373 LCT Le Luc / Le Cannet FRA eu JN33ej 664 413 154
548335 2011-02-26 0005 377 KN Norrkoping / Kungsangen SWE eu JO88bo 1386 861 33
548272 2011-02-25 2358 370 OTL Bucuresti / Otopeni ROU eu KN34an 1822 1132 96
549847 2011-02-25 2345 385 BO Zadar / Bokanjac HRV eu JN74pe 40 1081 671 114
548377 2011-02-25 2342 384 SLG Sligo IRL eu IO54qg 995 618 311
548380 2011-02-25 2342 384 AT Annecy / Meythet FRA eu JN35au 410 255 143
548369 2011-02-25 2340 383 MAR Marseille / Provence FRA eu JN23nl 25 622 387 163
548381 2011-02-25 2336 384 ADX Andraitx for Palma de Mallorca BAL eu JM19en 1034 642 182
548357 2011-02-25 2334 381 BUF Budapest / Ferihegy HNG eu JN97pk 1226 762 91
548315 2011-02-25 2333 375 SP UNID XUU xx
548372 2011-02-25 2332 383 EN Debrecen HNG eu KN07um 1400 870 88
548367 2011-02-25 2330 382 EGN Athens Central / Aegina Isl GRC eu KM17rs 40 2061 1280 119
548359 2011-02-25 2329 381 ESP Helsinki / Vantaa / Espoo FIN eu KP20jf 1881 1168 39
548356 2011-02-25 2329 381 RG Rygge / Tune NOR eu JO59mh 1277 793 21
548365 2011-02-25 2317 382 GAZ Gazoldo degli Ippoliti (MN) ITA eu JN55he 25 715 444 121
548354 2011-02-25 2315 380 CBL Campbeltown SCT eu IO75dk 936 582 324
548360 2011-02-25 2309 381 AS Sarajevo BIH eu JN93dt 1306 812 109
548294 2011-02-25 2309 372 CSM Castelsarrasin FRA eu JN04nb 549 341 194
548361 2011-02-25 2306 381 AQP L'Aquila / Preturo ITA eu JN62pj 1081 671 127
548352 2011-02-25 2305 380 FLR Trondheim / Vaernes / Flornes NOR eu JP53ql 50 1706 1060 14
548336 2011-02-25 2302 378 ZZ Constanta / Mihail Kogalniceanu ROU eu KN44fk 2003 1245 94
548322 2011-02-25 2301 375 CV Calvi / Ste Catherine COR eu JN42jn 40 836 520 144
548348 2011-02-25 2258 380 VNV Vilanova i la Geltru ESP eu JN01uf 853 530 186
548355 2011-02-25 2258 380 CAC Caceres ESP eu IM69sm 250 1275 792 218
548343 2011-02-25 2257 379 REK Reksten NOR eu JP21kn 100 1419 881 4
548346 2011-02-25 2257 379 EB St Etienne / Boutheon FRA eu JN25dp 372 231 162
548338 2011-02-25 2255 378 RSY Stavanger / Sola / Rennesoy NOR eu JO29td 1158 720 7
548341 2011-02-25 2254 378 HO Hopedale NL CAN na FO95vk 4214 2618 304
548308 2011-02-25 2251 374 CPR Shell / Esso Clipper Platform XOE iw JO03ul 521 323 351
548345 2011-02-25 2251 379 KRA Krakow / Balice POL eu JO90vb 1227 763 77
548344 2011-02-25 2250 379 PIS Pisa (PI) ITA eu JN53do 25 815 507 132
548340 2011-02-25 2249 378 KLY Killiney for Dublin IRL eu IO63wg 797 495 311
548337 2011-02-25 2247 378 TRI Split / Trogir HRV eu JN83cl 50 1186 737 115
548330 2011-02-25 2246 376 BS Bale / Mulhouse FRA eu JN37sn 374 233 110
548331 2011-02-25 2241 376 BJA Beja POR eu IM68ad 1474 916 220
548332 2011-02-25 2240 376.5 ORI Orio al Serio (BG) ITA eu JN45wp 25 637 396 121
548277 2011-02-25 2239 370 CUL Culdrose RNAS ENG eu IO70ib 605 376 285
548317 2011-02-25 2235 375 SAR Sarajevo BIH eu JN93fw 1311 815 108
548309 2011-02-25 2229 374 CBN Cumbernauld SCT eu IO85ax 917 570 332
548299 2011-02-25 2215 373 LPD Lampedusa (AG) SCY eu JM65hm 1683 1046 148
548289 2011-02-25 2213 372 PY Le Puy / Loudes FRA eu JN15va 432 268 170
548296 2011-02-25 2209 372.5 KTN Kariatain SYR as KM84of 3248 2018 107
548293 2011-02-25 2206 372 L Prague / Ruzyne / Liboc CZE eu JO70dc 836 519 76
548319 2011-02-25 2135 375 KD Kristanstad / Everod SWE eu JO75av 1087 676 39
548328 2011-02-25 2134 376 LN Hultsfred SWE eu JO77xl 1292 803 37
548306 2011-02-25 2113 374 FS Dresden DEU eu JO61we 827 514 67
548278 2011-02-25 2051 370 BSV Besancon / La Veze FRA eu JN37cg 304 189 124
548280 2011-02-25 2035 371 RIV Codroipo / Rivolto (UD) ITA eu JN65lw 824 512 109
548311 2011-02-25 2003 374 BKS Bekes HNG eu KN06mt 1371 852 92
548279 2011-02-25 1956 371 STR Sintra POR eu IM58hv 1476 917 225
548302 2011-02-25 1950 374 TU Aarhus / Tistrup DNK eu JO56jg 982 610 29
548320 2011-02-25 1943 375 GLA Gland for Geneva / Cointrain SUI eu JN36cj 370 230 136
548312 2011-02-25 1937 374 BGC Bergerac / Roumaniere FRA eu JN04ht 25 481 299 201
548305 2011-02-25 1932 374 KFT Klagenfurt AUT eu JN76go 907 563 101
548290 2011-02-25 1928 372 OZN Prins Christian Sund / Kitaa GRL na GP80kb 3144 1954 310
548295 2011-02-25 1921 372 CE Osijek / Cepin HRV eu JN95gm 50 1238 769 101
548292 2011-02-25 1909 372 NOR Nordholz DEU eu JO43js 30 684 425 34
548285 2011-02-25 1908 371 HAA Hamar / Stafsberg NOR eu JP50mt 1426 886 18
548284 2011-02-25 1901 371 LEV Savigliano / Levaldigi (CN) ITA eu JN34tn 599 372 141
548286 2011-02-25 1857 371 FRS Frosinone (FR) ITA eu JN61pp 1141 709 130
548271 2011-02-25 1849 370 PSA Spessart DEU eu JN49qu 25 484 300 74
548276 2011-02-25 1849 370 GAC Gacko BIH eu JN93gd 40 1363 847 111
548273 2011-02-25 1846 370 OHT Stockholm / Arlanda SWE eu JO89wn 1532 952 33
549845 2011-02-25 1801 369 VRS Vrsar HRV eu JN65tf 908 564 112
549846 2011-02-25 1800 369 MNE Munchen DEU eu JN58ui 25 651 405 91
548323 2011-02-25 1618 375 CHO Chociwel POL eu JO73pl 1005 624 54
548313 2011-02-25 1607 374.5 ANC Ancona (AN) ITA eu JN63ro 35 1000 621 121
548351 2011-02-25 1145 380 HO Colmar / Houssen FRA eu JN38qd 341 212 101
548373 2011-02-25 1141 383 ALD Alderney GSY eu IN89vr 50 381 237 286
548374 2011-02-25 1139 383.5 GUL Gulpen HOL eu JO20wt 15 306 190 43
548366 2011-02-25 1128 382 FW Frankfurt / Raunheim DEU eu JO40fa 25 424 263 70
548291 2011-02-25 1123 372 ODR Kristiansand / Kjevik / Odderoy NOR eu JO38xd 1086 675 16
548298 2011-02-25 1113 373 MP Cherbourg / Maupertus FRA eu IN99hp 321 199 287
548329 2011-02-25 1110 376 HAN Hahn DEU eu JN39px 25 343 213 66
548326 2011-02-25 1107 376 WP Amsterdam / Schipol / Weesp HOL eu JO22mh 414 257 20
548363 2011-02-25 1106 382 SBG Salzburg / Oberndorf AUT eu JN67kx 50 744 462 93
548318 2011-02-25 1105 375 OO Oostende BEL eu JO11ke 259 161
548324 2011-02-25 1104 375 BRG Bourges FRA eu JN17da 208 130 192
548297 2011-02-25 1104 373 NW Maastricht / Beek HOL eu JO21wa 15 323 200 40
548281 2011-02-25 1100 371 OKT Kortijk / Wevelgem BEL eu JO10ot 15 219 136 6
545578 2011-02-24 0053 389 ZRZ Zaragoza ESP eu IN91jr 300 854 531 203
545580 2011-02-24 0052 389 BX La Palma CNR af IL18co 150 2858 1776 225
545579 2011-02-23 2117 389 CP Lisboa / Caparica POR eu IM58jp 1490 926 224
545585 2011-02-23 0215 397 OL Szczecin / Golienow POL eu JO73ln 989 615 53
545587 2011-02-23 0212 405 VG Edibb V7 LBY af JL88tx 2542 1579 145
545592 2011-02-23 0113 417 VIC Vicenza (VI) ITA eu JN55up 25 755 469 114
545590 2011-02-23 0017 415 RTB Nurnberg / Rothenbach DEU eu JN59pl 25 616 382 80
545564 2011-02-22 2358 315 LV Lviv UKR eu KN19xt 1526 948 78
545571 2011-02-22 2316 356 BGS Burgas BUL eu KN32tp 2030 1261 100
545584 2011-02-22 2309 397 WN Varna BUL eu KN33uf 2006 1246 98
545577 2011-02-22 2250 382 EGN Athens Central / Aegina Isl GRC eu KM17rs 40 2061 1280 119
545573 2011-02-22 2248 360 KI Kiev / Zhulyany UKR eu KO50cf 1967 1222 75
545572 2011-02-22 2216 356 ANK Ankara / Esenboga TUR as KM69jw 2554 1587 101
545565 2011-02-22 1141 319 VAR Stavanger / Sola / Varhaug NOR eu JO28tp 25 1103 686 8
545591 2011-02-22 0028 416 R Arvika SWE eu JO69hp 1354 841 23
545576 2011-02-21 1955 370 CUL Culdrose RNAS ENG eu IO70ib 605 376 285
545570 2011-02-21 1936 348 HA Vopnafjordhur / Hofsa ISL eu IP25lp 2138 1329 337
545586 2011-02-21 1713 402 DA Ales / Deaux FRA eu JN24bb 541 336 169
545589 2011-02-21 1703 414 SLB Oslo / Gardermoen / Solberg NOR eu JP50la 1345 836 19
545569 2011-02-21 1030 342 VA Vannes / Meucon FRA eu IN87qs 424 263 255
545568 2011-02-21 1029 340 LSH Lashenden / Headcorn ENG eu JO01hd 40 301 187 328
545567 2011-02-21 1026 325 AST Asturias ESP eu IN63xn 903 561 232
545566 2011-02-21 1025 325 OF Filton ENG eu IO81qm 491 305 309
545575 2011-02-21 0054 365 VR Gran Canaria / Las Palmas CNR af IL27gu 200 2814 1748 220
545574 2011-02-21 0006 363 ZEL Zelten LBY af JL98vw 2641 1641 140
545583 2011-02-20 2149 395 GSG Gourin FRA eu IN88ed 485 301 263
545581 2011-02-20 2144 390 SO Santiago de Compostela ESP eu IN52sx 1091 678 237
545582 2011-02-20 2144 390 AVI Aviano (PN) ITA eu JN65fw 35 790 491 110
545595 2011-02-20 1713 458 HI Chernyakhovsk KAL eu KO04vo 1445 898 56
545588 2011-02-19 2056 414 STC Statfjord C XOE iw JP01se 1374 854 356
545594 2011-02-17 2251 430 AJ Staritza RUS eu KO76lm 2298 1428 56
545593 2011-02-17 2225 430 LI Lykhacheve UKR eu KN89dh 2414 1500 76
545596 2011-02-17 2213 525 PL Pulkovo / St.Petersburg RUS eu KO59es 2133 1325 45
544542 2011-02-16 1153 431 KBA Karlsruhe / Baden Baden DEU eu JN48bt 384 239 88
544535 2011-02-16 1152 424 PHG Phalsbourg / Bourscheid FRA eu JN38os 317 197 90
544537 2011-02-16 1152 426 HWQ Hewett A Platform XOE iw JO03va 469 292 351
544528 2011-02-16 1150 417 ND Great Yarmouth / North Denes ENG eu JO02up 429 267 349
544508 2011-02-16 1147 401.5 BET Rheine / Bentlage DEU eu JO32qg 495 308 38
544416 2011-02-16 1142 345 FW Fiumicino (RM) ITA eu JN61cv 1061 660 133
544490 2011-02-16 1137 380 HO Colmar / Houssen FRA eu JN38qd 341 212 101
544487 2011-02-16 1133 376 WP Amsterdam / Schipol / Weesp HOL eu JO22mh 414 257 20
544482 2011-02-16 1132 372 ODR Kristiansand / Kjevik / Odderoy NOR eu JO38xd 1086 675 16
544449 2011-02-16 1127 358 LT Le Touquet / Paris-Plage FRA eu JO00tm 206 128 334
544402 2011-02-16 1122 335 BER Bern / Belp SUI eu JN36sv 410 255 120
544401 2011-02-16 1121 335 WCO Westcott ENG eu IO91mu 430 267 322
544399 2011-02-16 1120 332.5 CAM Cambridge ENG eu JO02cf 420 261 334
544397 2011-02-16 1120 332 SHM Shoreham ENG eu IO90ut 315 195 314
544349 2011-02-16 0952 284.5 DY Dusseldorf DEU eu JO31if 25 380 236 44
544348 2011-02-16 0946 275 VG Haugesund / Karmoy / Vaga NOR eu JO29qg 1169 727 7
544481 2011-02-16 0945 371 AO K8-FA-1 / Penman B XOE iw JO13ql 515 320 3
544541 2011-02-16 0222 430 LU Batumi GEO as LN01to 3103 1928 90
544550 2011-02-15 2249 475 PT Petrovskoye RUS eu LO01cr 2642 1641 68
544491 2011-02-15 2113 385 NWT Leczyca POL eu JO91ox 1205 749 67
544513 2011-02-15 2112 405 HMI Sevan Hummingbird FPSO XOE iw JO07ox 1021 634 354
544484 2011-02-15 2110 373 KEM Kemi-Tornio / Hirmula FIN eu KP25hu 25 2271 1411 25
544364 2011-02-15 2057 318 B Pori FIN eu KP01vl 1834 1139 33
544523 2011-02-15 2042 414 HD Sandnessjoen / Stokka / Hestad NOR eu JP66gb 1993 1239 12
544516 2011-02-15 2040 409 SG Satenas / Tune SWE eu JO68ij 1241 771 27
544510 2011-02-15 2032 403 OJ Jonkoping SWE eu JO77aq 1228 763 32
544504 2011-02-15 2021 396 YG Rygge / Enge NOR eu JO59ji 1274 792 20
544503 2011-02-15 2019 395 KW Kirkwall / Orkney Isl. ORK eu IO88nx 1186 737 343
544502 2011-02-15 2017 394 JOK Kauhajoki FIN eu KP12hl 1940 1206 31
544489 2011-02-15 2011 378 RSY Stavanger / Sola / Rennesoy NOR eu JO29td 1158 720 7
544488 2011-02-15 2010 377 KN Norrkoping / Kungsangen SWE eu JO88bo 1386 861 33
544445 2011-02-15 2008 357 KD Kolding / Vamdrup DNK eu JO45qk 855 531 28
544485 2011-02-15 2008 374 TU Aarhus / Tistrup DNK eu JO56jg 982 610 29
544480 2011-02-15 2007 371 HAA Hamar / Stafsberg NOR eu JP50mt 1426 886 18
544496 2011-02-15 1938 388 COR Corner for Bromma SWE eu JO89rg 1492 927 33
544495 2011-02-15 1935 387 CML Clonmel IRL eu IO62gk 50 829 515 302
544501 2011-02-15 1932 393 NET North Everest Platform XOE iw JO07vs 994 618 356
544530 2011-02-15 1856 419 RD Vasteras / Hasslo SWE eu JO89hm 1479 919 31
544545 2011-02-15 1831 445 CL Lida BLR eu KO23qv 1651 1026 61
544546 2011-02-15 1826 458 WN Minsk / Machulishchi BLR eu KO33tr 1794 1114 63
544547 2011-02-15 1650 465 NED Deblin POL eu KO01vn 1375 854 70
544405 2011-02-15 1026 337 EX Exeter ENG eu IO80is 491